Time;durP1;ratioP1;P1;durP2;ratioP2;P2;SDS_P1;SDS_P2;PMS_P1;PMS_P2;Temp;Humidity;BMP_temperature;BMP_pressure;BME280_temperature;BME280_humidity;BME280_pressure;Samples;Min_cycle;Max_cycle;Signal;HPM_P1;HPM_P2
2020/12/15 00:00:31;;;;;;;631.10;67.28;;;;;;;-2.31;100.00;98343.03;4841809;29;20065;-70
2020/12/15 00:02:57;;;;;;;410.15;63.35;;;;;;;-2.30;100.00;98339.59;4825111;29;20053;-75
2020/12/15 00:05:22;;;;;;;572.42;67.32;;;;;;;-2.40;100.00;98345.75;4841473;29;20060;-71
2020/12/15 00:07:48;;;;;;;505.77;64.20;;;;;;;-2.35;100.00;98338.81;4837758;29;20058;-72
2020/12/15 00:10:14;;;;;;;694.05;69.75;;;;;;;-2.33;100.00;98344.78;4831980;29;20129;-70
2020/12/15 00:12:41;;;;;;;979.22;69.47;;;;;;;-2.43;100.00;98344.06;4841571;29;20050;-70
2020/12/15 00:15:08;;;;;;;888.38;71.97;;;;;;;-2.47;100.00;98341.56;4840834;29;20448;-70
2020/12/15 00:17:34;;;;;;;610.78;65.88;;;;;;;-2.37;100.00;98338.84;4841377;29;20130;-70
2020/12/15 00:19:59;;;;;;;401.63;61.35;;;;;;;-2.42;100.00;98332.09;4840666;29;20075;-72
2020/12/15 00:22:25;;;;;;;541.47;66.13;;;;;;;-2.50;100.00;98337.34;4844180;29;20057;-70
2020/12/15 00:24:51;;;;;;;432.55;65.13;;;;;;;-2.47;100.00;98332.16;4841150;29;20058;-70
2020/12/15 00:27:17;;;;;;;445.75;64.72;;;;;;;-2.46;100.00;98333.84;4840843;29;20077;-71
2020/12/15 00:29:42;;;;;;;468.48;64.32;;;;;;;-2.46;100.00;98333.00;4825688;29;20483;-70
2020/12/15 00:32:09;;;;;;;537.15;68.75;;;;;;;-2.50;100.00;98333.91;4822414;29;20133;-70
2020/12/15 00:34:35;;;;;;;655.88;69.40;;;;;;;-2.47;100.00;98339.00;4823544;29;20076;-70
2020/12/15 00:37:01;;;;;;;515.92;66.50;;;;;;;-2.42;100.00;98345.78;4822682;29;20104;-70
2020/12/15 00:39:27;;;;;;;558.65;61.88;;;;;;;-2.25;100.00;98352.38;4836279;29;20049;-70
2020/12/15 00:41:53;;;;;;;664.20;66.25;;;;;;;-2.32;100.00;98348.19;4839650;29;20124;-70
2020/12/15 00:44:19;;;;;;;534.40;61.90;;;;;;;-2.38;100.00;98334.59;4840732;29;20298;-70
2020/12/15 00:46:50;;;;;;;357.65;57.80;;;;;;;-2.36;100.00;98339.69;4841199;29;20046;-70
2020/12/15 00:49:17;;;;;;;503.33;58.35;;;;;;;-2.49;100.00;98336.44;4830024;29;20062;-70
2020/12/15 00:51:48;;;;;;;713.78;70.60;;;;;;;-2.33;100.00;98339.66;4840908;29;20061;-69
2020/12/15 00:54:15;;;;;;;367.58;60.47;;;;;;;-2.31;100.00;98344.75;4840664;29;20062;-71
2020/12/15 00:56:41;;;;;;;498.35;61.30;;;;;;;-2.16;100.00;98329.94;4840834;29;20236;-70
2020/12/15 00:59:07;;;;;;;476.48;63.20;;;;;;;-2.13;100.00;98343.59;4840295;29;20105;-73
2020/12/15 01:01:34;;;;;;;419.33;59.28;;;;;;;-2.33;100.00;98339.66;4840862;29;20490;-70
2020/12/15 01:04:00;;;;;;;615.42;62.47;;;;;;;-2.21;100.00;98354.88;4841275;29;20054;-76
2020/12/15 01:06:25;;;;;;;564.38;65.57;;;;;;;-2.00;100.00;98350.25;4824371;29;20137;-70
2020/12/15 01:08:51;;;;;;;362.63;55.63;;;;;;;-2.18;100.00;98351.38;4840746;29;20056;-71
2020/12/15 01:11:17;;;;;;;463.73;60.08;;;;;;;-2.07;100.00;98358.91;4825198;29;20111;-71
2020/12/15 01:13:43;;;;;;;371.42;62.15;;;;;;;-2.11;100.00;98347.00;4837971;29;20519;-71
2020/12/15 01:16:09;;;;;;;445.00;60.42;;;;;;;-2.12;100.00;98353.00;4840302;29;20046;-71
2020/12/15 01:18:39;;;;;;;385.58;60.10;;;;;;;-2.21;100.00;98357.44;4841075;29;20046;-70
2020/12/15 01:21:10;;;;;;;295.88;60.67;;;;;;;-2.19;100.00;98355.69;4828607;29;20625;-72
2020/12/15 01:23:37;;;;;;;397.90;63.53;;;;;;;-1.95;100.00;98356.16;4843087;29;20073;-71
2020/12/15 01:26:03;;;;;;;256.77;58.70;;;;;;;-1.99;100.00;98347.66;4843734;29;20141;-76
2020/12/15 01:28:29;;;;;;;379.30;62.28;;;;;;;-2.04;100.00;98352.03;4844088;29;20117;-71
2020/12/15 01:30:55;;;;;;;403.60;63.83;;;;;;;-1.96;100.00;98351.91;4831322;29;20394;-71
2020/12/15 01:33:20;;;;;;;314.50;60.78;;;;;;;-1.96;100.00;98349.31;4825280;29;20207;-72
2020/12/15 01:35:46;;;;;;;559.20;66.20;;;;;;;-2.11;100.00;98358.13;4825766;29;20130;-71
2020/12/15 01:38:12;;;;;;;243.98;58.70;;;;;;;-2.01;100.00;98351.97;4828701;29;20046;-71
2020/12/15 01:40:37;;;;;;;376.85;62.90;;;;;;;-2.04;100.00;98349.47;4843321;29;20499;-73
2020/12/15 01:43:03;;;;;;;376.85;64.45;;;;;;;-2.06;100.00;98347.78;4843716;29;20048;-76
2020/12/15 01:45:29;;;;;;;363.13;61.08;;;;;;;-1.87;100.00;98340.59;4843660;29;20119;-71
2020/12/15 01:47:55;;;;;;;276.05;58.88;;;;;;;-1.90;100.00;98353.50;4842934;29;20456;-71
2020/12/15 01:50:20;;;;;;;417.35;58.25;;;;;;;-2.07;100.00;98348.63;4843556;29;20068;-72
2020/12/15 01:52:47;;;;;;;442.13;67.40;;;;;;;-2.05;100.00;98341.78;4847012;29;20038;-71
2020/12/15 01:55:16;;;;;;;311.92;61.08;;;;;;;-1.87;100.00;98327.75;4843370;29;20113;-71
2020/12/15 01:57:44;;;;;;;336.23;63.22;;;;;;;-1.98;100.00;98330.50;4843229;29;20054;-71
2020/12/15 02:00:09;;;;;;;377.83;62.90;;;;;;;-1.99;100.00;98328.81;4824284;29;20054;-71
2020/12/15 02:02:35;;;;;;;433.90;66.28;;;;;;;-2.07;100.00;98328.09;4830107;29;20487;-71
2020/12/15 02:05:01;;;;;;;436.15;67.78;;;;;;;-2.07;100.00;98333.22;4834928;29;20186;-71
2020/12/15 02:07:27;;;;;;;416.40;61.40;;;;;;;-1.96;100.00;98330.47;4843189;29;20049;-71
2020/12/15 02:09:54;;;;;;;320.77;64.68;;;;;;;-2.10;100.00;98329.00;4842558;29;20058;-71
2020/12/15 02:12:19;;;;;;;387.13;65.07;;;;;;;-1.84;100.00;98326.00;4842392;29;20511;-71
2020/12/15 02:14:45;;;;;;;316.63;62.83;;;;;;;-1.77;100.00;98326.72;4843149;29;20046;-71
2020/12/15 02:17:14;;;;;;;352.15;65.50;;;;;;;-1.94;100.00;98326.19;4842637;29;20551;-72
2020/12/15 02:19:40;;;;;;;431.58;66.43;;;;;;;-2.04;100.00;98315.19;4829112;29;20057;-71
2020/12/15 02:22:05;;;;;;;345.70;65.13;;;;;;;-2.10;100.00;98317.88;4808444;29;20050;-75
2020/12/15 02:24:31;;;;;;;387.77;69.18;;;;;;;-2.03;100.00;98311.75;4824551;29;20051;-71
2020/12/15 02:26:57;;;;;;;248.30;64.13;;;;;;;-1.94;100.00;98318.47;4826355;29;20134;-69
2020/12/15 02:29:23;;;;;;;275.20;60.35;;;;;;;-1.80;100.00;98317.34;4842536;29;20050;-71
2020/12/15 02:31:49;;;;;;;266.83;64.35;;;;;;;-1.92;100.00;98312.41;4842225;29;20053;-71
2020/12/15 02:34:16;;;;;;;295.45;66.65;;;;;;;-2.09;100.00;98320.41;4842071;29;20069;-71
2020/12/15 02:36:42;;;;;;;462.50;67.88;;;;;;;-1.96;100.00;98317.63;4842414;29;20088;-70
2020/12/15 02:39:13;;;;;;;451.38;69.03;;;;;;;-1.90;100.00;98328.66;4826127;29;20482;-75
2020/12/15 02:41:39;;;;;;;332.92;66.45;;;;;;;-1.76;100.00;98318.16;4826529;29;20054;-70
2020/12/15 02:44:07;;;;;;;386.67;65.78;;;;;;;-1.95;100.00;98317.59;4842667;29;20398;-71
2020/12/15 02:46:32;;;;;;;380.75;60.80;;;;;;;-1.73;100.00;98322.34;4824606;29;20058;-70
2020/12/15 02:48:59;;;;;;;280.00;62.80;;;;;;;-2.06;100.00;98319.53;4842847;29;20058;-70
2020/12/15 02:51:25;;;;;;;399.35;61.00;;;;;;;-2.05;100.00;98316.09;4842123;29;20440;-71
2020/12/15 02:53:51;;;;;;;453.85;68.95;;;;;;;-2.09;100.00;98319.56;4826508;29;20098;-70
2020/12/15 02:56:21;;;;;;;304.77;64.97;;;;;;;-1.86;100.00;98317.44;4834573;29;20046;-71
2020/12/15 02:58:47;;;;;;;528.17;70.45;;;;;;;-2.16;100.00;98319.69;4824168;29;20137;-70
2020/12/15 03:01:13;;;;;;;353.35;66.20;;;;;;;-1.81;100.00;98323.38;4823563;29;20471;-70
2020/12/15 03:03:39;;;;;;;429.48;72.43;;;;;;;-1.92;100.00;98325.25;4826949;29;20054;-70
2020/12/15 03:06:05;;;;;;;356.25;61.95;;;;;;;-2.02;100.00;98326.31;4842578;29;20054;-70
2020/12/15 03:08:31;;;;;;;392.23;64.65;;;;;;;-2.07;100.00;98320.38;4841978;29;20049;-72
2020/12/15 03:10:56;;;;;;;311.88;60.78;;;;;;;-1.86;100.00;98320.00;4842295;29;20057;-70
2020/12/15 03:13:22;;;;;;;430.40;66.30;;;;;;;-2.06;100.00;98322.09;4824771;29;20054;-71
2020/12/15 03:15:48;;;;;;;246.05;63.63;;;;;;;-1.94;100.00;98318.47;4842277;29;20046;-70
2020/12/15 03:18:14;;;;;;;321.45;59.05;;;;;;;-1.83;100.00;98327.66;4841978;29;20046;-70
2020/12/15 03:20:46;;;;;;;349.55;63.42;;;;;;;-2.11;100.00;98318.75;4842365;29;20118;-70
2020/12/15 03:23:12;;;;;;;326.08;63.67;;;;;;;-2.14;100.00;98318.81;4842135;29;20058;-74
2020/12/15 03:25:37;;;;;;;329.77;62.22;;;;;;;-2.16;100.00;98322.25;4842035;29;20402;-70
2020/12/15 03:28:03;;;;;;;404.65;66.65;;;;;;;-2.19;100.00;98324.88;4825813;29;20049;-70
2020/12/15 03:30:29;;;;;;;305.58;59.72;;;;;;;-2.03;100.00;98316.91;4841418;29;20050;-70
2020/12/15 03:32:55;;;;;;;343.58;68.05;;;;;;;-2.08;100.00;98319.53;4834935;29;20057;-70
2020/12/15 03:35:20;;;;;;;299.13;61.75;;;;;;;-2.01;100.00;98317.72;4838812;29;20057;-71
2020/12/15 03:37:46;;;;;;;432.33;69.15;;;;;;;-2.14;100.00;98314.50;4842309;29;20441;-70
2020/12/15 03:40:12;;;;;;;311.88;68.63;;;;;;;-2.16;100.00;98311.97;4825121;29;20057;-75
2020/12/15 03:42:38;;;;;;;414.38;67.25;;;;;;;-2.00;100.00;98314.28;4819637;29;20073;-70
2020/12/15 03:45:06;;;;;;;402.42;68.03;;;;;;;-2.02;100.00;98308.31;4823791;29;20055;-70
2020/12/15 03:47:32;;;;;;;404.50;64.50;;;;;;;-1.90;100.00;98299.53;4823295;29;20046;-71
2020/12/15 03:49:58;;;;;;;399.70;66.63;;;;;;;-1.99;100.00;98305.72;4823677;29;20057;-70
2020/12/15 03:52:23;;;;;;;250.10;65.38;;;;;;;-2.10;100.00;98307.59;4824008;29;20049;-70
2020/12/15 03:54:49;;;;;;;276.38;63.40;;;;;;;-2.09;100.00;98301.59;4823711;29;20558;-70
2020/12/15 03:57:15;;;;;;;300.23;63.00;;;;;;;-2.23;100.00;98291.56;4823328;29;20051;-75
2020/12/15 03:59:41;;;;;;;339.35;60.05;;;;;;;-2.28;100.00;98301.91;4823297;29;20411;-71
2020/12/15 04:02:07;;;;;;;313.23;58.60;;;;;;;-2.25;100.00;98290.75;4824433;29;20082;-70
2020/12/15 04:04:33;;;;;;;340.70;59.88;;;;;;;-2.27;100.00;98295.03;4832983;29;20094;-70
2020/12/15 04:06:58;;;;;;;416.73;58.67;;;;;;;-2.16;100.00;98293.16;4841373;29;20054;-70
2020/12/15 04:09:25;;;;;;;233.63;57.05;;;;;;;-2.23;100.00;98302.66;4840887;29;20054;-70
2020/12/15 04:11:50;;;;;;;330.63;59.45;;;;;;;-2.30;100.00;98295.09;4841276;29;20058;-70
2020/12/15 04:14:16;;;;;;;330.83;57.67;;;;;;;-2.26;100.00;98307.00;4823749;29;20464;-75
2020/12/15 04:16:42;;;;;;;344.30;60.70;;;;;;;-2.26;100.00;98307.00;4823075;29;20058;-70
2020/12/15 04:19:07;;;;;;;333.63;61.80;;;;;;;-2.34;100.00;98300.28;4806734;29;20050;-70
2020/12/15 04:21:33;;;;;;;265.77;56.08;;;;;;;-2.33;100.00;98303.72;4822558;29;20055;-70
2020/12/15 04:23:59;;;;;;;288.60;56.97;;;;;;;-2.35;100.00;98298.59;4823946;29;20054;-70
2020/12/15 04:26:25;;;;;;;343.77;59.00;;;;;;;-2.18;100.00;98316.28;4822645;29;20499;-70
2020/12/15 04:28:50;;;;;;;316.45;56.25;;;;;;;-2.34;100.00;98314.84;4823071;29;20567;-71
2020/12/15 04:31:16;;;;;;;253.88;59.55;;;;;;;-2.31;100.00;98313.94;4822978;29;20060;-76
2020/12/15 04:33:42;;;;;;;472.98;63.00;;;;;;;-2.29;100.00;98323.31;4839046;29;20148;-70
2020/12/15 04:36:08;;;;;;;390.23;58.88;;;;;;;-2.13;100.00;98325.63;4841137;29;20049;-70
2020/12/15 04:38:34;;;;;;;317.02;56.83;;;;;;;-1.98;100.00;98322.78;4840800;29;20479;-70
2020/12/15 04:40:59;;;;;;;293.63;58.00;;;;;;;-2.02;100.00;98323.75;4841461;29;20102;-70
2020/12/15 04:43:25;;;;;;;285.63;58.90;;;;;;;-2.19;100.00;98329.16;4826543;29;20047;-70
2020/12/15 04:45:55;;;;;;;380.08;58.47;;;;;;;-2.27;100.00;98319.00;4834128;29;20066;-70
2020/12/15 04:48:24;;;;;;;277.88;57.25;;;;;;;-2.14;100.00;98316.25;4822282;29;20077;-71
2020/12/15 04:50:57;;;;;;;368.27;55.00;;;;;;;-2.38;100.00;98315.75;4823022;29;20057;-70
2020/12/15 04:53:26;;;;;;;406.20;59.05;;;;;;;-2.31;100.00;98316.53;4837771;29;20050;-71
2020/12/15 04:55:55;;;;;;;317.80;58.80;;;;;;;-2.39;100.00;98308.94;4844827;29;20053;-70
2020/12/15 04:58:22;;;;;;;310.30;58.85;;;;;;;-2.34;100.00;98309.69;4843640;29;20498;-73
2020/12/15 05:00:49;;;;;;;620.22;64.95;;;;;;;-2.45;100.00;98321.88;4844709;29;20124;-70
2020/12/15 05:03:20;;;;;;;297.60;55.97;;;;;;;-2.46;100.00;98315.03;4837120;29;20045;-70
2020/12/15 05:05:50;;;;;;;310.67;57.90;;;;;;;-2.53;100.00;98325.41;4843925;29;20179;-70
2020/12/15 05:08:17;;;;;;;459.95;58.38;;;;;;;-2.48;100.00;98321.91;4844604;29;20073;-70
2020/12/15 05:10:43;;;;;;;304.77;59.05;;;;;;;-2.35;100.00;98328.53;4843810;29;20057;-70
2020/12/15 05:13:08;;;;;;;417.65;56.70;;;;;;;-2.44;100.00;98329.56;4835717;29;20418;-70
2020/12/15 05:15:34;;;;;;;276.17;56.92;;;;;;;-2.47;100.00;98329.59;4825625;29;20099;-70
2020/12/15 05:18:04;;;;;;;313.02;60.92;;;;;;;-2.37;100.00;98323.44;4825924;29;20410;-70
2020/12/15 05:20:33;;;;;;;259.40;58.92;;;;;;;-2.41;100.00;98331.19;4825239;29;20054;-71
2020/12/15 05:23:00;;;;;;;386.60;61.67;;;;;;;-2.49;100.00;98336.44;4826686;29;20042;-70
2020/12/15 05:25:27;;;;;;;317.75;64.93;;;;;;;-2.49;100.00;98333.03;4825012;29;20054;-71
2020/12/15 05:27:54;;;;;;;657.85;65.38;;;;;;;-2.43;100.00;98330.38;4826972;29;20077;-70
2020/12/15 05:30:21;;;;;;;818.45;78.65;;;;;;;-2.49;100.00;98335.63;4829616;29;20098;-75
2020/12/15 05:32:58;;;;;;;296.63;61.00;;;;;;;-2.43;100.00;98338.09;4844087;29;20050;-70
2020/12/15 05:35:28;;;;;;;340.25;66.80;;;;;;;-2.45;100.00;98322.72;4843338;29;20058;-71
2020/12/15 05:37:58;;;;;;;336.38;62.42;;;;;;;-2.53;100.00;98324.56;4840820;29;20524;-71
2020/12/15 05:40:24;;;;;;;499.65;66.47;;;;;;;-2.62;100.00;98333.22;4832763;29;20118;-75
2020/12/15 05:43:04;;;;;;;417.90;70.50;;;;;;;-2.52;100.00;98328.78;4843940;29;20115;-72
2020/12/15 05:45:31;;;;;;;387.85;65.65;;;;;;;-2.56;100.00;98334.88;4843321;29;20042;-71
2020/12/15 05:48:01;;;;;;;444.92;68.88;;;;;;;-2.49;100.00;98336.44;4841621;29;20510;-70
2020/12/15 05:50:27;;;;;;;660.15;74.30;;;;;;;-2.65;100.00;98333.28;4830181;29;20053;-71
2020/12/15 05:53:04;;;;;;;635.90;64.03;;;;;;;-2.68;100.00;98333.31;4842495;29;20049;-71
2020/12/15 05:55:30;;;;;;;526.90;64.88;;;;;;;-2.68;100.00;98333.31;4824861;29;20573;-72
2020/12/15 05:57:57;;;;;;;313.38;62.53;;;;;;;-2.66;100.00;98341.84;4834322;29;20046;-71
2020/12/15 06:00:28;;;;;;;529.10;60.63;;;;;;;-2.72;100.00;98336.78;4824363;29;20046;-75
2020/12/15 06:02:58;;;;;;;582.72;64.18;;;;;;;-2.77;100.00;98334.28;4838446;29;20085;-72
2020/12/15 06:05:26;;;;;;;483.50;64.78;;;;;;;-2.80;100.00;98323.22;4840079;29;20050;-77
2020/12/15 06:07:53;;;;;;;482.77;65.85;;;;;;;-2.81;100.00;98335.22;4840869;29;20149;-72
2020/12/15 06:10:20;;;;;;;926.83;77.32;;;;;;;-2.89;100.00;98337.88;4842720;29;20456;-70
2020/12/15 06:12:48;;;;;;;618.15;67.85;;;;;;;-2.55;100.00;98339.09;4835156;29;20115;-70
2020/12/15 06:15:14;;;;;;;334.23;61.53;;;;;;;-2.71;100.00;98335.94;4824435;29;20055;-70
2020/12/15 06:17:45;;;;;;;516.60;57.70;;;;;;;-2.98;100.00;98338.00;4824443;29;20054;-70
2020/12/15 06:20:12;;;;;;;587.03;59.13;;;;;;;-2.93;100.00;98332.81;4824696;29;20060;-70
2020/12/15 06:22:38;;;;;;;396.10;50.60;;;;;;;-2.86;100.00;98341.28;4825865;29;20093;-69
2020/12/15 06:25:04;;;;;;;353.98;54.90;;;;;;;-2.92;100.00;98343.06;4839811;29;20137;-73
2020/12/15 06:27:32;;;;;;;481.92;59.10;;;;;;;-2.86;100.00;98333.56;4841707;29;20490;-70
2020/12/15 06:29:58;;;;;;;412.55;53.60;;;;;;;-2.96;100.00;98327.72;4842951;29;20490;-73
2020/12/15 06:32:24;;;;;;;418.30;59.78;;;;;;;-2.98;100.00;98327.75;4832562;29;20046;-78
2020/12/15 06:34:51;;;;;;;305.45;57.78;;;;;;;-2.94;100.00;98324.25;4836821;29;20063;-73
2020/12/15 06:37:19;;;;;;;354.50;59.53;;;;;;;-2.94;100.00;98320.84;4842096;29;20410;-73
2020/12/15 06:40:05;;;;;;;419.90;61.50;;;;;;;-2.77;100.00;98334.28;4841465;29;20703;-73
2020/12/15 06:42:31;;;;;;;531.88;64.05;;;;;;;-2.86;100.00;98336.13;4839328;29;20561;-73
2020/12/15 06:45:05;;;;;;;448.98;56.75;;;;;;;-2.93;100.00;98323.41;4840702;29;20042;-74
2020/12/15 06:47:31;;;;;;;348.98;56.22;;;;;;;-3.10;100.00;98333.03;4840523;29;20070;-71
2020/12/15 06:50:11;;;;;;;273.17;50.70;;;;;;;-3.03;100.00;98326.09;4825707;29;20561;-73
2020/12/15 06:52:37;;;;;;;325.30;53.63;;;;;;;-3.06;100.00;98329.53;4834284;29;20574;-74
2020/12/15 06:55:03;;;;;;;319.55;51.90;;;;;;;-3.02;100.00;98328.66;4823611;29;20054;-73
2020/12/15 06:57:34;;;;;;;264.33;52.65;;;;;;;-2.99;100.00;98326.03;4822084;29;20085;-77
2020/12/15 07:00:04;;;;;;;333.35;54.83;;;;;;;-3.03;100.00;98324.38;4824004;29;20141;-73
2020/12/15 07:02:32;;;;;;;383.02;51.83;;;;;;;-3.22;100.00;98317.81;4827584;29;20046;-77
2020/12/15 07:05:16;;;;;;;292.67;50.53;;;;;;;-3.26;100.00;98327.22;4841144;29;20180;-76
2020/12/15 07:07:58;;;;;;;251.82;47.83;;;;;;;-3.11;100.00;98333.91;4840805;29;20475;-76
2020/12/15 07:10:26;;;;;;;438.23;52.17;;;;;;;-3.07;100.00;98333.00;4840503;29;20081;-78
2020/12/15 07:12:53;;;;;;;260.77;46.08;;;;;;;-3.13;100.00;98327.94;4840529;29;20103;-78
2020/12/15 07:15:20;;;;;;;177.73;40.60;;;;;;;-3.06;100.00;98337.25;4831501;29;20073;-76
2020/12/15 07:17:50;;;;;;;291.05;39.95;;;;;;;-3.05;100.00;98336.38;4823161;29;20122;-74
2020/12/15 07:20:21;;;;;;;343.90;43.15;;;;;;;-3.09;100.00;98337.28;4822306;29;20062;-79
2020/12/15 07:22:48;;;;;;;206.23;40.63;;;;;;;-3.08;100.00;98333.84;4808180;29;20141;-74
2020/12/15 07:25:15;;;;;;;141.90;40.90;;;;;;;-2.78;100.00;98326.63;4840859;29;20049;-74
2020/12/15 07:27:42;;;;;;;188.90;42.05;;;;;;;-3.07;100.00;98333.00;4824193;29;20055;-75
2020/12/15 07:30:10;;;;;;;148.73;43.45;;;;;;;-3.08;100.00;98324.44;4839238;29;20054;-74
2020/12/15 07:32:37;;;;;;;237.32;43.05;;;;;;;-3.08;100.00;98319.31;4837191;29;20414;-76
2020/12/15 07:35:07;;;;;;;220.30;46.22;;;;;;;-3.27;100.00;98328.97;4840468;29;20054;-73
2020/12/15 07:37:41;;;;;;;271.90;50.67;;;;;;;-3.19;100.00;98328.03;4840648;29;20102;-79
2020/12/15 07:40:10;;;;;;;160.93;45.53;;;;;;;-3.11;100.00;98331.34;4829539;29;20488;-79
2020/12/15 07:42:36;;;;;;;124.50;45.45;;;;;;;-3.11;100.00;98331.34;4824247;29;20054;-78
2020/12/15 07:45:06;;;;;;;112.60;45.38;;;;;;;-3.04;100.00;98327.84;4839769;29;20425;-73
2020/12/15 07:47:43;;;;;;;135.40;47.72;;;;;;;-3.00;100.00;98337.16;4839723;29;20049;-75
2020/12/15 07:50:10;;;;;;;122.13;48.38;;;;;;;-3.07;100.00;98328.72;4841312;29;20049;-74
2020/12/15 07:52:38;;;;;;;135.63;51.97;;;;;;;-3.02;100.00;98338.06;4827040;29;20406;-76
2020/12/15 07:55:11;;;;;;;130.57;50.30;;;;;;;-2.96;100.00;98335.44;4841531;29;20068;-76
2020/12/15 07:57:42;;;;;;;144.23;51.53;;;;;;;-3.00;100.00;98344.84;4839347;29;20483;-75
2020/12/15 08:00:15;;;;;;;140.45;54.35;;;;;;;-2.85;100.00;98337.84;4837416;29;20050;-75
2020/12/15 08:02:45;;;;;;;124.75;51.55;;;;;;;-2.89;100.00;98345.59;4816289;29;20488;-73
2020/12/15 08:05:16;;;;;;;141.02;50.60;;;;;;;-2.78;100.00;98342.00;4822844;29;20637;-77
2020/12/15 08:07:50;;;;;;;136.70;51.63;;;;;;;-2.86;100.00;98346.41;4821566;29;20384;-72
2020/12/15 08:10:23;;;;;;;136.60;44.63;;;;;;;-2.99;100.00;98344.00;4834741;29;20098;-75
2020/12/15 08:12:50;;;;;;;249.75;55.17;;;;;;;-2.92;100.00;98349.88;4839506;29;20050;-74
2020/12/15 08:15:15;;;;;;;263.20;55.90;;;;;;;-2.84;99.54;98344.66;4824175;29;20058;-73
2020/12/15 08:17:45;;;;;;;152.73;47.83;;;;;;;-2.69;99.09;98336.75;4838954;29;20061;-75
2020/12/15 08:20:12;;;;;;;166.32;50.63;;;;;;;-2.69;99.24;98339.31;4838879;29;20517;-72
2020/12/15 08:22:40;;;;;;;124.45;48.55;;;;;;;-2.75;99.38;98347.09;4839815;29;20344;-73
2020/12/15 08:25:18;;;;;;;158.88;52.60;;;;;;;-2.65;99.97;98350.41;4840570;29;20046;-74
2020/12/15 08:27:44;;;;;;;246.52;50.10;;;;;;;-2.58;95.69;98342.59;4823297;29;20054;-75
2020/12/15 08:30:19;;;;;;;160.85;52.78;;;;;;;-2.69;98.29;98341.88;4841494;29;20149;-74
2020/12/15 08:32:47;;;;;;;137.88;53.10;;;;;;;-2.54;99.81;98351.91;4825439;29;20151;-73
2020/12/15 08:35:14;;;;;;;168.73;51.38;;;;;;;-2.57;98.45;98349.41;4825351;29;20494;-71
2020/12/15 08:37:42;;;;;;;246.85;50.45;;;;;;;-2.53;98.57;98348.50;4825708;29;20057;-72
2020/12/15 08:40:11;;;;;;;186.00;51.05;;;;;;;-2.85;99.90;98358.38;4826620;29;20054;-71
2020/12/15 08:42:43;;;;;;;144.35;49.47;;;;;;;-2.74;98.57;98359.06;4824465;29;20106;-71
2020/12/15 08:45:16;;;;;;;162.43;50.38;;;;;;;-2.70;98.58;98368.44;4825499;29;20050;-74
2020/12/15 08:47:47;;;;;;;154.98;53.33;;;;;;;-2.45;98.58;98373.22;4825728;29;20051;-73
2020/12/15 08:50:15;;;;;;;227.23;54.85;;;;;;;-2.10;96.73;98370.09;4826002;29;20051;-72
2020/12/15 08:52:41;;;;;;;204.48;54.40;;;;;;;-2.42;98.12;98368.03;4813059;29;20050;-73
2020/12/15 08:55:07;;;;;;;173.88;53.78;;;;;;;-2.08;97.16;98363.22;4836594;29;20109;-76
2020/12/15 08:57:34;;;;;;;150.00;52.47;;;;;;;-2.10;97.19;98356.41;4824832;29;20139;-79
2020/12/15 09:00:14;;;;;;;142.35;54.38;;;;;;;-1.96;96.11;98356.16;4825655;29;20054;-74
2020/12/15 09:02:41;;;;;;;150.55;53.28;;;;;;;-2.13;98.07;98364.16;4824779;29;20073;-73
2020/12/15 09:05:12;;;;;;;216.60;54.00;;;;;;;-2.07;96.48;98359.78;4810237;29;20562;-72
2020/12/15 09:07:38;;;;;;;179.48;53.53;;;;;;;-2.12;96.68;98365.84;4826085;29;20129;-72
2020/12/15 09:10:12;;;;;;;147.52;53.22;;;;;;;-2.26;98.00;98359.22;4826513;29;20100;-71
2020/12/15 09:12:42;;;;;;;164.20;56.58;;;;;;;-2.08;97.94;98357.25;4843607;29;20065;-72
2020/12/15 09:15:08;;;;;;;139.43;54.22;;;;;;;-1.91;97.79;98350.09;4825102;29;20138;-72
2020/12/15 09:17:34;;;;;;;124.15;50.45;;;;;;;-1.85;95.92;98344.84;4824635;29;20050;-81
2020/12/15 09:20:00;;;;;;;124.35;49.17;;;;;;;-2.07;95.82;98352.06;4825728;29;20054;-75
2020/12/15 09:22:26;;;;;;;148.48;54.83;;;;;;;-1.95;96.55;98339.88;4821375;29;20418;-77
2020/12/15 09:24:52;;;;;;;115.38;49.72;;;;;;;-1.67;93.94;98328.25;4828147;29;20050;-72
2020/12/15 09:27:22;;;;;;;120.93;52.42;;;;;;;-1.38;93.45;98329.41;4824977;29;20074;-71
2020/12/15 09:29:49;;;;;;;121.60;52.05;;;;;;;-1.41;93.19;98331.19;4823780;29;20115;-71
2020/12/15 09:32:17;;;;;;;107.40;48.25;;;;;;;-1.27;91.77;98335.22;4824746;29;20050;-70
2020/12/15 09:34:44;;;;;;;124.13;49.90;;;;;;;-1.69;93.59;98342.00;4807898;29;20054;-70
2020/12/15 09:37:10;;;;;;;168.50;56.38;;;;;;;-1.73;94.17;98341.22;4824722;29;20060;-71
2020/12/15 09:39:35;;;;;;;140.25;57.03;;;;;;;-1.78;93.88;98344.72;4824124;29;20409;-81
2020/12/15 09:42:03;;;;;;;139.88;55.00;;;;;;;-1.87;96.19;98341.47;4823722;29;20064;-73
2020/12/15 09:44:30;;;;;;;134.48;56.38;;;;;;;-1.68;95.75;98326.56;4842947;29;20050;-73
2020/12/15 09:46:56;;;;;;;124.43;52.63;;;;;;;-1.36;93.21;98337.09;4842711;29;20050;-74
2020/12/15 09:49:22;;;;;;;119.45;52.40;;;;;;;-1.10;91.21;98331.44;4827649;29;20046;-73
2020/12/15 09:51:48;;;;;;;120.18;51.35;;;;;;;-1.04;89.90;98338.19;4842453;29;20129;-73
2020/12/15 09:54:14;;;;;;;125.57;52.38;;;;;;;-1.04;92.52;98333.88;4841447;29;20054;-71
2020/12/15 09:56:44;;;;;;;130.25;54.17;;;;;;;-0.90;91.92;98331.00;4824102;29;20059;-73
2020/12/15 09:59:16;;;;;;;128.18;54.00;;;;;;;-0.96;90.34;98323.41;4832118;29;20054;-71
2020/12/15 10:01:42;;;;;;;131.57;56.20;;;;;;;-0.80;91.59;98337.66;4826021;29;20042;-72
2020/12/15 10:04:08;;;;;;;122.85;55.15;;;;;;;-0.30;88.25;98342.53;4842851;29;20050;-71
2020/12/15 10:06:35;;;;;;;135.07;58.33;;;;;;;-0.78;89.28;98340.19;4841532;29;20056;-72
2020/12/15 10:09:01;;;;;;;136.80;57.92;;;;;;;-0.72;90.06;98348.63;4842028;29;20061;-72
2020/12/15 10:11:26;;;;;;;143.93;61.58;;;;;;;-0.85;92.60;98344.66;4842570;29;20387;-72
2020/12/15 10:13:52;;;;;;;142.52;58.95;;;;;;;-0.66;92.24;98347.66;4841041;29;20065;-74
2020/12/15 10:16:18;;;;;;;142.07;61.30;;;;;;;-0.45;91.60;98354.06;4840055;29;20057;-72
2020/12/15 10:18:44;;;;;;;130.05;58.40;;;;;;;-0.48;89.26;98348.97;4824340;29;20042;-72
2020/12/15 10:21:10;;;;;;;126.85;53.88;;;;;;;-0.25;86.40;98342.44;4808166;29;20047;-71
2020/12/15 10:23:37;;;;;;;135.90;58.97;;;;;;;-0.32;88.67;98346.88;4824436;29;20113;-73
2020/12/15 10:26:06;;;;;;;131.02;54.95;;;;;;;-0.14;86.92;98340.47;4823759;29;20057;-72
2020/12/15 10:28:32;;;;;;;121.55;55.38;;;;;;;-0.28;88.95;98333.06;4824265;29;20050;-72
2020/12/15 10:30:58;;;;;;;117.13;52.15;;;;;;;-0.42;88.64;98340.25;4824274;29;20147;-72
2020/12/15 10:33:24;;;;;;;130.35;54.42;;;;;;;-0.27;88.47;98339.88;4824873;29;20116;-75
2020/12/15 10:35:50;;;;;;;119.53;53.70;;;;;;;-0.04;87.56;98338.50;4824033;29;20130;-72
2020/12/15 10:38:16;;;;;;;126.10;56.40;;;;;;;-0.20;88.03;98330.31;4825342;29;20085;-71
2020/12/15 10:40:41;;;;;;;124.85;57.65;;;;;;;0.14;88.18;98326.84;4829820;29;20049;-75
2020/12/15 10:43:07;;;;;;;120.28;55.38;;;;;;;0.24;87.56;98332.63;4842083;29;20134;-75
2020/12/15 10:45:33;;;;;;;117.55;57.30;;;;;;;0.83;84.30;98332.72;4842546;29;20102;-74
2020/12/15 10:48:01;;;;;;;116.85;54.60;;;;;;;1.54;80.75;98329.81;4841858;29;20050;-73
2020/12/15 10:50:28;;;;;;;110.03;52.13;;;;;;;1.96;79.62;98329.31;4842653;29;20148;-71
2020/12/15 10:52:54;;;;;;;108.75;51.53;;;;;;;2.72;75.79;98321.56;4843525;29;20549;-71
2020/12/15 10:55:20;;;;;;;97.50;49.42;;;;;;;3.06;74.52;98316.00;4825882;29;20061;-74
2020/12/15 10:57:46;;;;;;;94.30;48.28;;;;;;;3.04;73.49;98317.78;4841149;29;20440;-74
2020/12/15 11:00:11;;;;;;;106.97;52.92;;;;;;;2.55;77.41;98311.81;4841451;29;20387;-68
2020/12/15 11:02:37;;;;;;;96.88;49.53;;;;;;;2.54;75.82;98304.97;4825253;29;20050;-76
2020/12/15 11:05:03;;;;;;;97.68;49.50;;;;;;;2.19;76.84;98297.50;4831486;29;20054;-70